Algoa, Arkansas
Current Conditions -  °F | °C
As of 6:56 PM on Sunday 23 Nov 2014 (Local Time) from KM19 Reporting Station
Overcast Overcast  
Wind Chill: 60°   Ceiling: 500
Heat Index: 60°   Visibility: 10mi
Dew Point: 60°   Wind: 6mph
Humidity: 100%   Direction: 200°SSW
Pressure: 29.42"   Gusts: NA
Location:  35.5678°N, 91.2073°W
Report Text: KM19 240056Z AUTO 20005KT 10SM OVC005 16/16 A2942 RMK AO2 T01550155 SLP960
Loading
Personal Weather Stations






























Interactive Weather Map New forecast layout! Learn more

10-Day Weather Forecast

Advertisements
Track Severe Weather on mobile